createdAt,value
2022-08-05T00:01:19.971Z,97.36
2022-08-05T00:03:58.323Z,97.54
2022-08-05T00:06:38.324Z,97.76
2022-08-05T00:09:13.161Z,98.14
2022-08-05T00:12:02.323Z,97.68
2022-08-05T00:14:42.328Z,97.53
2022-08-05T00:17:36.315Z,98.27
2022-08-05T00:20:29.049Z,98.01
2022-08-05T00:23:12.872Z,97.86
2022-08-05T00:26:01.421Z,98.06
2022-08-05T00:28:35.448Z,98.09
2022-08-05T00:31:53.255Z,97.91
2022-08-05T00:34:53.307Z,98.02
2022-08-05T00:37:53.133Z,98.39
2022-08-05T00:40:40.367Z,98.61
2022-08-05T00:43:27.508Z,98.72
2022-08-05T00:46:42.456Z,98.58
2022-08-05T00:49:19.381Z,98.50
2022-08-05T00:52:06.389Z,98.86
2022-08-05T00:54:46.392Z,98.90
2022-08-05T00:57:55.435Z,98.69
2022-08-05T01:00:33.392Z,98.95
2022-08-05T01:03:30.952Z,99.53
2022-08-05T01:06:20.390Z,99.38
2022-08-05T01:09:06.287Z,99.55
2022-08-05T01:12:09.124Z,99.82
2022-08-05T01:14:56.903Z,99.91
2022-08-05T01:17:53.796Z,99.86
2022-08-05T01:20:46.483Z,99.65
2022-08-05T01:24:02.398Z,99.95
2022-08-05T01:27:24.325Z,99.57
2022-08-05T01:30:20.391Z,99.44
2022-08-05T01:33:25.157Z,99.38
2022-08-05T01:36:02.487Z,99.44
2022-08-05T01:38:50.905Z,99.32
2022-08-05T01:41:27.453Z,99.67
2022-08-05T01:44:15.428Z,99.51
2022-08-05T01:46:50.479Z,100.00
2022-08-05T01:50:00.446Z,100.00
2022-08-05T01:52:36.490Z,99.52
2022-08-05T01:55:27.363Z,99.94
2022-08-05T01:58:14.960Z,99.50
2022-08-05T02:01:05.367Z,99.62
2022-08-05T02:03:44.483Z,100.00
2022-08-05T02:06:37.720Z,99.99
2022-08-05T02:09:20.453Z,100.00
2022-08-05T02:12:14.391Z,100.00
2022-08-05T02:15:23.381Z,100.00
2022-08-05T02:18:32.446Z,100.00
2022-08-05T02:21:31.375Z,100.00
2022-08-05T02:24:23.548Z,100.00
2022-08-05T02:27:13.377Z,100.00
2022-08-05T02:30:00.060Z,100.00
2022-08-05T02:32:48.395Z,100.00
2022-08-05T02:35:28.216Z,100.00
2022-08-05T02:38:35.152Z,100.00
2022-08-05T02:41:36.423Z,100.00
2022-08-05T02:44:40.392Z,100.00
2022-08-05T02:47:17.500Z,100.00
2022-08-05T02:50:05.433Z,100.00
2022-08-05T02:52:41.632Z,100.00
2022-08-05T02:55:53.716Z,100.00
2022-08-05T02:58:30.566Z,100.00
2022-08-05T03:01:30.422Z,100.00
2022-08-05T03:04:23.082Z,100.00
2022-08-05T03:06:59.408Z,100.00
2022-08-05T03:09:51.714Z,100.00
2022-08-05T03:12:42.501Z,100.00
2022-08-05T03:15:29.424Z,100.00
2022-08-05T03:18:02.488Z,100.00
2022-08-05T03:20:50.427Z,100.00
2022-08-05T03:23:24.041Z,100.00
2022-08-05T03:26:31.390Z,100.00
2022-08-05T03:29:12.322Z,100.00
2022-08-05T03:32:04.417Z,100.00
2022-08-05T03:34:42.498Z,100.00
2022-08-05T03:37:46.657Z,100.00
2022-08-05T03:40:33.463Z,100.00
2022-08-05T03:44:08.816Z,100.00
2022-08-05T03:46:23.425Z,100.00
2022-08-05T03:49:02.512Z,100.00
2022-08-05T03:52:38.454Z,100.00
2022-08-05T03:55:34.462Z,100.00
2022-08-05T03:58:02.436Z,100.00
2022-08-05T04:00:42.511Z,100.00
2022-08-05T04:03:29.458Z,100.00
2022-08-05T04:06:10.530Z,100.00
2022-08-05T04:08:51.447Z,100.00
2022-08-05T04:11:50.801Z,100.00
2022-08-05T04:14:29.962Z,100.00
2022-08-05T04:17:18.445Z,100.00
2022-08-05T04:19:54.525Z,100.00
2022-08-05T04:22:45.446Z,100.00
2022-08-05T04:25:18.504Z,100.00
2022-08-05T04:28:13.000Z,100.00
2022-08-05T04:30:46.511Z,100.00
2022-08-05T04:34:17.376Z,100.00
2022-08-05T04:36:46.444Z,100.00
2022-08-05T04:39:35.749Z,100.00
2022-08-05T04:42:16.459Z,100.00
2022-08-05T04:45:10.476Z,100.00
2022-08-05T04:48:26.994Z,100.00
2022-08-05T04:51:03.496Z,100.00
2022-08-05T04:53:58.477Z,100.00
2022-08-05T04:56:37.191Z,100.00
2022-08-05T04:59:36.636Z,100.00
2022-08-05T05:02:41.547Z,100.00
2022-08-05T05:05:32.449Z,100.00
2022-08-05T05:08:42.769Z,100.00
2022-08-05T05:11:24.458Z,100.00
2022-08-05T05:14:38.474Z,100.00
2022-08-05T05:17:56.264Z,100.00
2022-08-05T05:20:30.566Z,100.00
2022-08-05T05:23:19.504Z,100.00
2022-08-05T05:26:07.484Z,100.00
2022-08-05T05:29:02.404Z,99.92
2022-08-05T05:31:49.465Z,98.96
2022-08-05T05:34:26.776Z,98.73
2022-08-05T05:37:21.632Z,98.42
2022-08-05T05:40:36.487Z,97.96
2022-08-05T05:43:57.014Z,97.80
2022-08-05T05:46:18.833Z,97.13
2022-08-05T05:49:06.485Z,96.86
2022-08-05T05:51:55.608Z,96.07
2022-08-05T05:54:50.537Z,95.78
2022-08-05T05:57:24.671Z,96.68
2022-08-05T06:00:34.235Z,95.93
2022-08-05T06:03:39.695Z,95.13
2022-08-05T06:06:09.507Z,94.16
2022-08-05T06:08:50.499Z,93.23
2022-08-05T06:11:23.567Z,92.97
2022-08-05T06:14:10.505Z,94.48
2022-08-05T06:16:43.557Z,93.44
2022-08-05T06:19:35.070Z,91.98
2022-08-05T06:22:20.507Z,92.72
2022-08-05T06:25:24.346Z,92.26
2022-08-05T06:28:21.249Z,91.88
2022-08-05T06:31:18.131Z,91.02
2022-08-05T06:34:15.803Z,90.82
2022-08-05T06:37:13.536Z,89.77
2022-08-05T06:40:02.593Z,89.41
2022-08-05T06:42:35.584Z,89.56
2022-08-05T06:46:03.395Z,89.66
2022-08-05T06:48:53.041Z,89.56
2022-08-05T06:51:29.723Z,88.42
2022-08-05T06:54:05.851Z,87.84
2022-08-05T06:57:56.648Z,87.86
2022-08-05T06:59:48.507Z,87.58
2022-08-05T07:02:54.506Z,86.77
2022-08-05T07:05:37.181Z,88.11
2022-08-05T07:08:25.145Z,87.18
2022-08-05T07:10:58.636Z,88.77
2022-08-05T07:14:04.548Z,88.43
2022-08-05T07:18:00.457Z,88.08
2022-08-05T07:20:32.429Z,86.13
2022-08-05T07:22:58.658Z,85.41
2022-08-05T07:25:56.388Z,84.29
2022-08-05T07:28:36.611Z,83.35
2022-08-05T07:31:16.551Z,85.38
2022-08-05T07:33:56.620Z,85.33
2022-08-05T07:36:53.548Z,85.06
2022-08-05T07:40:04.529Z,84.18
2022-08-05T07:42:57.578Z,82.56
2022-08-05T07:45:57.428Z,83.01
2022-08-05T07:49:02.944Z,81.02
2022-08-05T07:51:41.065Z,79.77
2022-08-05T07:54:31.130Z,78.20
2022-08-05T07:57:56.229Z,78.02
2022-08-05T08:00:16.777Z,75.65
2022-08-05T08:03:14.229Z,75.66
2022-08-05T08:05:52.288Z,74.98
2022-08-05T08:08:39.594Z,74.70
2022-08-05T08:11:15.903Z,74.68
2022-08-05T08:14:02.577Z,73.85
2022-08-05T08:16:51.190Z,72.48
2022-08-05T08:20:22.989Z,72.03
2022-08-05T08:22:33.739Z,71.35
2022-08-05T08:25:27.164Z,70.59
2022-08-05T08:28:36.849Z,69.86
2022-08-05T08:31:34.577Z,70.71
2022-08-05T08:34:30.671Z,69.61
2022-08-05T08:37:06.661Z,68.31
2022-08-05T08:39:53.678Z,66.74
2022-08-05T08:42:46.857Z,66.96
2022-08-05T08:45:45.595Z,66.19
2022-08-05T08:49:02.462Z,65.03
2022-08-05T08:52:03.048Z,65.41
2022-08-05T08:54:54.609Z,63.05
2022-08-05T08:57:58.016Z,63.79
2022-08-05T09:00:31.741Z,60.99
2022-08-05T09:03:19.265Z,60.55
2022-08-05T09:06:07.539Z,60.09
2022-08-05T09:09:02.632Z,61.91
2022-08-05T09:12:01.243Z,59.13
2022-08-05T09:15:06.431Z,60.12
2022-08-05T09:17:49.631Z,57.08
2022-08-05T09:20:37.338Z,59.12
2022-08-05T09:23:21.676Z,58.87
2022-08-05T09:26:20.699Z,61.28
2022-08-05T09:29:08.831Z,60.13
2022-08-05T09:32:41.708Z,61.62
2022-08-05T09:34:55.121Z,61.65
2022-08-05T09:38:17.977Z,60.93
2022-08-05T09:41:03.656Z,61.41
2022-08-05T09:43:50.616Z,62.11
2022-08-05T09:46:51.751Z,62.53
2022-08-05T09:50:01.350Z,61.72
2022-08-05T09:52:44.880Z,62.23
2022-08-05T09:55:56.586Z,61.27
2022-08-05T09:58:34.637Z,61.60
2022-08-05T10:01:31.610Z,61.75
2022-08-05T10:04:29.235Z,62.18
2022-08-05T10:08:10.802Z,61.33
2022-08-05T10:10:32.408Z,64.57
2022-08-05T10:13:12.741Z,64.86
2022-08-05T10:15:57.666Z,62.92
2022-08-05T10:18:38.784Z,62.38
2022-08-05T10:21:20.663Z,59.27
2022-08-05T10:24:07.580Z,57.32
2022-08-05T10:26:52.901Z,58.67
2022-08-05T10:30:06.867Z,57.38
2022-08-05T10:33:01.341Z,56.06
2022-08-05T10:35:59.000Z,58.43
2022-08-05T10:38:57.708Z,55.44
2022-08-05T10:42:02.654Z,56.99
2022-08-05T10:44:39.200Z,57.34
2022-08-05T10:47:39.694Z,55.59
2022-08-05T10:50:36.648Z,55.87
2022-08-05T10:54:23.229Z,58.37
2022-08-05T10:57:05.704Z,57.87
2022-08-05T11:00:04.465Z,57.32
2022-08-05T11:02:50.741Z,57.44
2022-08-05T11:05:37.737Z,56.87
2022-08-05T11:08:37.415Z,58.18
2022-08-05T11:11:52.267Z,58.10
2022-08-05T11:15:11.722Z,59.53
2022-08-05T11:17:59.992Z,56.37
2022-08-05T11:20:41.811Z,58.31
2022-08-05T11:24:05.500Z,57.50
2022-08-05T11:27:51.059Z,57.38
2022-08-05T11:30:31.730Z,57.25
2022-08-05T11:33:46.026Z,56.63
2022-08-05T11:37:00.722Z,55.48
2022-08-05T11:40:08.731Z,55.69
2022-08-05T11:43:02.724Z,54.32
2022-08-05T11:46:16.108Z,54.76
2022-08-05T11:48:48.819Z,54.48
2022-08-05T11:51:43.623Z,56.55
2022-08-05T11:54:33.619Z,54.57
2022-08-05T11:57:25.635Z,53.58
2022-08-05T12:00:07.734Z,53.78
2022-08-05T12:03:01.798Z,53.20
2022-08-05T12:05:48.746Z,55.36
2022-08-05T12:08:21.803Z,53.33
2022-08-05T12:11:20.313Z,52.86
2022-08-05T12:14:11.808Z,53.00
2022-08-05T12:16:58.761Z,53.17
2022-08-05T12:20:25.628Z,55.13
2022-08-05T12:22:41.739Z,54.74
2022-08-05T12:25:28.513Z,54.29
2022-08-05T12:28:22.769Z,56.40
2022-08-05T12:31:33.649Z,54.65
2022-08-05T12:34:41.759Z,54.73
2022-08-05T12:37:38.748Z,55.72
2022-08-05T12:40:31.736Z,57.46
2022-08-05T12:43:11.763Z,57.43
2022-08-05T12:46:14.760Z,57.77
2022-08-05T12:49:25.505Z,58.17
2022-08-05T12:52:23.782Z,56.85
2022-08-05T12:55:07.840Z,56.27
2022-08-05T12:58:51.533Z,55.70
2022-08-05T13:02:01.735Z,55.82
2022-08-05T13:04:11.783Z,55.38
2022-08-05T13:06:58.770Z,55.97
2022-08-05T13:09:34.854Z,55.95
2022-08-05T13:12:22.772Z,56.37
2022-08-05T13:15:06.858Z,58.42
2022-08-05T13:18:04.790Z,57.44
2022-08-05T13:20:41.879Z,58.39
2022-08-05T13:23:29.795Z,57.48
2022-08-05T13:26:09.774Z,57.68
2022-08-05T13:28:59.316Z,57.12
2022-08-05T13:32:04.226Z,55.67
2022-08-05T13:34:53.817Z,54.96
2022-08-05T13:37:47.804Z,56.34
2022-08-05T13:40:52.016Z,56.96
2022-08-05T13:43:44.683Z,57.19
2022-08-05T13:47:01.909Z,57.02
2022-08-05T13:49:45.087Z,58.04
2022-08-05T13:52:37.980Z,58.57
2022-08-05T13:55:40.815Z,57.81
2022-08-05T13:58:23.271Z,58.19
2022-08-05T14:01:17.817Z,57.30
2022-08-05T14:04:10.854Z,57.95
2022-08-05T14:07:11.977Z,58.51
2022-08-05T14:09:57.852Z,58.96
2022-08-05T14:12:54.588Z,57.12
2022-08-05T14:16:07.798Z,57.13
2022-08-05T14:19:04.261Z,58.24
2022-08-05T14:22:09.178Z,58.12
2022-08-05T14:24:44.923Z,57.93
2022-08-05T14:27:33.843Z,58.65
2022-08-05T14:30:19.988Z,59.02
2022-08-05T14:33:22.577Z,57.83
2022-08-05T14:36:10.842Z,59.16
2022-08-05T14:38:43.921Z,57.67
2022-08-05T14:41:30.832Z,58.44
2022-08-05T14:44:09.707Z,59.28
2022-08-05T14:46:58.847Z,61.27
2022-08-05T14:49:56.362Z,60.59
2022-08-05T14:52:51.926Z,60.15
2022-08-05T14:55:39.495Z,59.72
2022-08-05T14:58:16.028Z,59.67
2022-08-05T15:01:02.871Z,59.02
2022-08-05T15:03:39.146Z,59.46
2022-08-05T15:06:27.927Z,59.99
2022-08-05T15:09:03.854Z,58.27
2022-08-05T15:11:53.483Z,59.06
2022-08-05T15:14:34.595Z,59.53
2022-08-05T15:17:46.684Z,60.16
2022-08-05T15:20:24.765Z,59.89
2022-08-05T15:23:13.862Z,59.04
2022-08-05T15:25:53.408Z,58.95
2022-08-05T15:28:43.870Z,58.22
2022-08-05T15:31:34.741Z,58.26
2022-08-05T15:34:33.243Z,58.76
2022-08-05T15:37:19.347Z,59.25
2022-08-05T15:41:01.188Z,59.84
2022-08-05T15:43:45.737Z,59.18
2022-08-05T15:46:33.882Z,60.18
2022-08-05T15:49:10.612Z,60.39
2022-08-05T15:52:13.397Z,60.60
2022-08-05T15:54:48.950Z,59.87
2022-08-05T15:57:37.905Z,59.72
2022-08-05T16:00:26.525Z,59.14
2022-08-05T16:03:21.925Z,60.49
2022-08-05T16:05:55.836Z,61.07
2022-08-05T16:08:45.876Z,61.59
2022-08-05T16:11:40.190Z,60.69
2022-08-05T16:14:22.932Z,62.37
2022-08-05T16:17:03.100Z,60.08
2022-08-05T16:20:03.172Z,60.38
2022-08-05T16:22:44.047Z,59.94
2022-08-05T16:25:23.933Z,61.45
2022-08-05T16:28:13.897Z,60.07
2022-08-05T16:30:56.931Z,58.86
2022-08-05T16:33:43.944Z,58.53
2022-08-05T16:36:20.531Z,59.24
2022-08-05T16:39:21.017Z,60.05
2022-08-05T16:42:18.493Z,60.26
2022-08-05T16:46:04.130Z,60.20
2022-08-05T16:48:05.917Z,61.19
2022-08-05T16:50:59.944Z,60.68
2022-08-05T16:54:03.885Z,62.42
2022-08-05T16:56:46.942Z,61.40
2022-08-05T17:00:00.378Z,62.33
2022-08-05T17:02:38.943Z,62.50
2022-08-05T17:05:32.952Z,62.17
2022-08-05T17:08:35.864Z,63.42
2022-08-05T17:11:25.275Z,64.84
2022-08-05T17:14:34.275Z,66.20
2022-08-05T17:17:15.136Z,67.34
2022-08-05T17:20:01.983Z,66.37
2022-08-05T17:22:35.061Z,66.84
2022-08-05T17:25:39.851Z,66.80
2022-08-05T17:28:20.954Z,67.06
2022-08-05T17:31:24.505Z,68.52
2022-08-05T17:34:29.990Z,69.13
2022-08-05T17:37:37.686Z,69.22
2022-08-05T17:40:16.078Z,71.20
2022-08-05T17:42:53.583Z,70.99
2022-08-05T17:45:40.966Z,72.66
2022-08-05T17:48:14.230Z,72.56
2022-08-05T17:51:09.207Z,73.46
2022-08-05T17:53:43.070Z,73.94
2022-08-05T17:56:38.007Z,74.04
2022-08-05T17:59:12.084Z,74.75
2022-08-05T18:01:59.029Z,76.22
2022-08-05T18:04:32.141Z,75.38
2022-08-05T18:07:22.953Z,76.71
2022-08-05T18:09:59.066Z,77.03
2022-08-05T18:12:47.043Z,77.17
2022-08-05T18:15:27.166Z,77.96
2022-08-05T18:18:14.213Z,78.84
2022-08-05T18:20:57.024Z,77.74
2022-08-05T18:23:53.761Z,77.76
2022-08-05T18:26:44.067Z,78.00
2022-08-05T18:29:17.127Z,78.49
2022-08-05T18:32:04.027Z,79.01
2022-08-05T18:34:40.643Z,79.07
2022-08-05T18:37:34.365Z,79.19
2022-08-05T18:41:56.780Z,80.79
2022-08-05T18:43:38.293Z,79.50
2022-08-05T18:46:26.067Z,80.01
2022-08-05T18:49:30.350Z,80.39
2022-08-05T18:52:36.293Z,80.66
2022-08-05T18:55:13.096Z,81.29
2022-08-05T18:58:03.501Z,81.43
2022-08-05T19:00:37.175Z,81.50
2022-08-05T19:03:52.743Z,81.86
2022-08-05T19:06:20.105Z,81.62
2022-08-05T19:09:09.078Z,81.82
2022-08-05T19:12:00.129Z,81.98
2022-08-05T19:15:00.953Z,82.54
2022-08-05T19:18:08.516Z,82.84
2022-08-05T19:20:52.084Z,83.17
2022-08-05T19:24:05.273Z,83.45
2022-08-05T19:26:55.461Z,83.49
2022-08-05T19:29:36.428Z,83.73
2022-08-05T19:32:27.752Z,83.38
2022-08-05T19:35:06.429Z,83.95
2022-08-05T19:38:06.363Z,83.69
2022-08-05T19:41:07.076Z,84.17
2022-08-05T19:44:06.019Z,83.97
2022-08-05T19:46:53.075Z,84.15
2022-08-05T19:49:40.054Z,84.88
2022-08-05T19:52:30.718Z,84.94
2022-08-05T19:56:14.353Z,85.52
2022-08-05T19:58:29.447Z,85.89
2022-08-05T20:01:10.132Z,85.62
2022-08-05T20:03:50.221Z,86.04
2022-08-05T20:06:34.906Z,86.25
2022-08-05T20:09:26.211Z,86.46
2022-08-05T20:12:09.073Z,87.36
2022-08-05T20:14:52.069Z,87.63
2022-08-05T20:17:33.718Z,87.25
2022-08-05T20:20:17.170Z,87.21
2022-08-05T20:22:57.075Z,87.44
2022-08-05T20:25:40.231Z,87.51
2022-08-05T20:28:21.080Z,87.54
2022-08-05T20:31:03.078Z,87.64
2022-08-05T20:33:42.508Z,88.16
2022-08-05T20:36:31.077Z,88.12
2022-08-05T20:39:06.322Z,88.21
2022-08-05T20:42:01.081Z,88.07
2022-08-05T20:44:37.794Z,88.53
2022-08-05T20:47:31.787Z,88.70
2022-08-05T20:50:07.438Z,88.59
2022-08-05T20:52:55.090Z,89.01
2022-08-05T20:55:56.247Z,89.41
2022-08-05T20:58:36.099Z,89.18
2022-08-05T21:01:18.194Z,89.90
2022-08-05T21:04:20.095Z,89.54
2022-08-05T21:07:15.092Z,89.64
2022-08-05T21:10:09.104Z,89.57
2022-08-05T21:13:11.077Z,90.10
2022-08-05T21:15:56.122Z,89.85
2022-08-05T21:18:50.129Z,90.45
2022-08-05T21:21:44.317Z,90.29
2022-08-05T21:24:24.205Z,90.72
2022-08-05T21:27:11.106Z,90.96
2022-08-05T21:29:48.433Z,90.89
2022-08-05T21:32:32.363Z,91.11
2022-08-05T21:35:18.371Z,91.27
2022-08-05T21:38:13.548Z,91.68
2022-08-05T21:41:07.088Z,91.87
2022-08-05T21:44:03.623Z,91.96
2022-08-05T21:46:46.138Z,91.53
2022-08-05T21:50:00.348Z,91.74
2022-08-05T21:52:58.791Z,91.92
2022-08-05T21:56:04.608Z,92.10
2022-08-05T21:58:58.005Z,92.72
2022-08-05T22:01:35.422Z,92.75
2022-08-05T22:04:25.476Z,92.78
2022-08-05T22:07:02.185Z,93.17
2022-08-05T22:09:49.160Z,92.85
2022-08-05T22:12:26.443Z,92.99
2022-08-05T22:16:02.755Z,92.82
2022-08-05T22:18:13.200Z,92.62
2022-08-05T22:21:03.942Z,93.08
2022-08-05T22:24:01.921Z,93.04
2022-08-05T22:27:10.958Z,93.31
2022-08-05T22:29:57.166Z,93.05
2022-08-05T22:32:52.142Z,93.51
2022-08-05T22:35:48.845Z,93.55
2022-08-05T22:38:23.206Z,93.46
2022-08-05T22:41:12.158Z,93.63
2022-08-05T22:43:48.248Z,93.34
2022-08-05T22:46:40.114Z,93.84
2022-08-05T22:50:18.233Z,93.89
2022-08-05T22:52:30.637Z,94.33
2022-08-05T22:55:19.399Z,94.68
2022-08-05T22:58:17.204Z,94.28
2022-08-05T23:01:22.226Z,94.53
2022-08-05T23:04:22.162Z,94.54
2022-08-05T23:07:02.173Z,94.61
2022-08-05T23:09:57.404Z,95.33
2022-08-05T23:12:46.168Z,95.03
2022-08-05T23:15:19.384Z,95.22
2022-08-05T23:18:11.725Z,95.62
2022-08-05T23:20:56.193Z,95.35
2022-08-05T23:23:52.163Z,95.81
2022-08-05T23:26:46.184Z,95.94
2022-08-05T23:29:41.167Z,95.81
2022-08-05T23:32:28.576Z,95.68
2022-08-05T23:35:09.175Z,96.28
2022-08-05T23:37:56.153Z,96.39
2022-08-05T23:40:29.295Z,96.28
2022-08-05T23:43:25.604Z,96.24
2022-08-05T23:46:21.251Z,96.84
2022-08-05T23:49:16.182Z,96.50
2022-08-05T23:52:10.106Z,96.86
2022-08-05T23:54:57.177Z,97.08
2022-08-05T23:57:31.264Z,96.84
